Pagrindinis puslapis
METAR-TAF:

METAR-TAF

Oro uostai :

Damaskas, Sirija

platuma: 33-25N, ilguma: 036-31E, Aukštis: 608 m

Dabartinis oras

Ataskaita buvo paskelbta 49 minutes, ne 23:00 UTC
Vėjas 11 kt iš Pietų/Pietvakarių
Temperatūra 11°C
Drėgmė 82%
Slėgis 1015 hPa
Matomumas 10 km arba daugiau
nėra debesų žemiau 1500 m ir nėra kamuolinių lietaus debesų

METAR: OSDI 052300Z 21011KT CAVOK 11/08 Q1015

Laikas: 02:49 (23:49 UTC)

Prognozė

Ataskaita buvo paskelbta 6 valandos ir 49 minutes, ne 17:00 UTC
Prognozė galioja nuo 05 metu 18 UTC su 06 metu 24 UTC
Vėjas 10 kt iš Rytų
Matomumas: 7000 m
Mažai debesys ne aukštis 3000 ft
Išsisklaidę debesys ne aukštis 10000 ft
Laikinai
nuo 05 metu 18 UTC su 06 metu 12 UTC
Vėjas 15 kt iš Rytų su gūsio iki 25 kt
Matomumas: 3000 m
Mažai debesys ne aukštis 3000 ft
Išsisklaidę debesys ne aukštis 10000 ft
ledinis lietus, dulkės

TAF: OSDI 051700Z 0518/0624 09010KT 7000 FEW030 SCT100 TEMPO 0518/0612 09015G25KT 3000 PLDU FEW030 SCT100

Orai ataskaitas ir orų prognozės (METAR, TAF).

turimą stotys yra geltonos ir raudonos taškus žemėlapyje.

Perkelti pele per norėdami pamatyti stoties vardą.

Tada spustelėkite, norėdami matyti oro stebėjimo ir prognozės.

Norėdami pakeisti žemėlapį: spustelėkite ant žalios mygtukų su juodo kryžiaus žemyn,; žalią mygtuką su brūkšneliu, jei norite nutolinti; arba žalių rodyklių gretimoms žemėlapius.


METAR-TAF: